<?xml version="1.0" encoding="UTF-8" standalone="no" ?>
<gpx xmlns="http://www.topografix.com/GPX/1/1" xmlns:xsi="http://www.w3.org/2001/XMLSchema-instance" xsi:schemaLocation="http://www.topografix.com/GPX/1/1 http://www.topografix.com/GPX/1/1/gpx.xsd" version="1.1" creator="VisuGPX - https://www.visugpx.com">
  <metadata>
    <name>Petit tour de la Charvaz</name>
    <desc><![CDATA[Une randonnée au départ d\'Ontex. 
Accès au sommet de la Charvaz puis redescende de l\'autre côté (ATTENTION descente raide à éviter en cas de pluie). ]]></desc>
  </metadata>
  <trk>
    <name><![CDATA[Ontex Petit tour de la Charvaz-17389878]]></name>
    <trkseg>
      <trkpt lat="45.74588" lon="5.82777">
        <ele>746</ele>
        <time>2026-07-14T09:54:59Z</time>
      </trkpt>
      <trkpt lat="45.74578" lon="5.82786">
        <ele>744</ele>
        <time>2026-07-14T09:55:08Z</time>
      </trkpt>
      <trkpt lat="45.74576" lon="5.828">
        <ele>742</ele>
        <time>2026-07-14T09:55:16Z</time>
      </trkpt>
      <trkpt lat="45.74553" lon="5.82827">
        <ele>737</ele>
        <time>2026-07-14T09:55:40Z</time>
      </trkpt>
      <trkpt lat="45.74543" lon="5.8285">
        <ele>734</ele>
        <time>2026-07-14T09:55:55Z</time>
      </trkpt>
      <trkpt lat="45.74537" lon="5.82877">
        <ele>731</ele>
        <time>2026-07-14T09:56:11Z</time>
      </trkpt>
      <trkpt lat="45.74519" lon="5.82912">
        <ele>728</ele>
        <time>2026-07-14T09:56:36Z</time>
      </trkpt>
      <trkpt lat="45.74512" lon="5.82911">
        <ele>729</ele>
        <time>2026-07-14T09:56:41Z</time>
      </trkpt>
      <trkpt lat="45.7451" lon="5.82903">
        <ele>729</ele>
        <time>2026-07-14T09:56:46Z</time>
      </trkpt>
      <trkpt lat="45.74505" lon="5.8289">
        <ele>730</ele>
        <time>2026-07-14T09:56:54Z</time>
      </trkpt>
      <trkpt lat="45.74498" lon="5.82882">
        <ele>730</ele>
        <time>2026-07-14T09:57:01Z</time>
      </trkpt>
      <trkpt lat="45.74479" lon="5.82872">
        <ele>730</ele>
        <time>2026-07-14T09:57:18Z</time>
      </trkpt>
      <trkpt lat="45.7446" lon="5.82872">
        <ele>730</ele>
        <time>2026-07-14T09:57:33Z</time>
      </trkpt>
      <trkpt lat="45.74417" lon="5.82891">
        <ele>732</ele>
        <time>2026-07-14T09:58:09Z</time>
      </trkpt>
      <trkpt lat="45.74347" lon="5.82907">
        <ele>738</ele>
        <time>2026-07-14T09:59:06Z</time>
      </trkpt>
      <trkpt lat="45.74337" lon="5.82914">
        <ele>739</ele>
        <time>2026-07-14T09:59:14Z</time>
      </trkpt>
      <trkpt lat="45.74311" lon="5.82946">
        <ele>739</ele>
        <time>2026-07-14T09:59:42Z</time>
      </trkpt>
      <trkpt lat="45.74283" lon="5.82971">
        <ele>741</ele>
        <time>2026-07-14T10:00:08Z</time>
      </trkpt>
      <trkpt lat="45.74263" lon="5.82971">
        <ele>742</ele>
        <time>2026-07-14T10:00:24Z</time>
      </trkpt>
      <trkpt lat="45.74232" lon="5.82964">
        <ele>746</ele>
        <time>2026-07-14T10:00:49Z</time>
      </trkpt>
      <trkpt lat="45.74191" lon="5.82948">
        <ele>753</ele>
        <time>2026-07-14T10:01:23Z</time>
      </trkpt>
      <trkpt lat="45.74155" lon="5.82939">
        <ele>759</ele>
        <time>2026-07-14T10:01:53Z</time>
      </trkpt>
      <trkpt lat="45.74126" lon="5.82935">
        <ele>767</ele>
        <time>2026-07-14T10:02:16Z</time>
      </trkpt>
      <trkpt lat="45.74105" lon="5.82927">
        <ele>772</ele>
        <time>2026-07-14T10:02:33Z</time>
      </trkpt>
      <trkpt lat="45.74087" lon="5.82924">
        <ele>777</ele>
        <time>2026-07-14T10:02:48Z</time>
      </trkpt>
      <trkpt lat="45.74064" lon="5.82936">
        <ele>782</ele>
        <time>2026-07-14T10:03:08Z</time>
      </trkpt>
      <trkpt lat="45.74041" lon="5.82958">
        <ele>786</ele>
        <time>2026-07-14T10:03:30Z</time>
      </trkpt>
      <trkpt lat="45.73976" lon="5.82942">
        <ele>802</ele>
        <time>2026-07-14T10:04:23Z</time>
      </trkpt>
      <trkpt lat="45.73932" lon="5.82983">
        <ele>803</ele>
        <time>2026-07-14T10:05:05Z</time>
      </trkpt>
      <trkpt lat="45.73909" lon="5.82996">
        <ele>805</ele>
        <time>2026-07-14T10:05:24Z</time>
      </trkpt>
      <trkpt lat="45.73893" lon="5.82997">
        <ele>810</ele>
        <time>2026-07-14T10:05:37Z</time>
      </trkpt>
      <trkpt lat="45.73877" lon="5.82993">
        <ele>816</ele>
        <time>2026-07-14T10:05:50Z</time>
      </trkpt>
      <trkpt lat="45.73874" lon="5.82977">
        <ele>821</ele>
        <time>2026-07-14T10:05:59Z</time>
      </trkpt>
      <trkpt lat="45.73875" lon="5.82959">
        <ele>824</ele>
        <time>2026-07-14T10:06:10Z</time>
      </trkpt>
      <trkpt lat="45.73878" lon="5.82937">
        <ele>828</ele>
        <time>2026-07-14T10:06:22Z</time>
      </trkpt>
      <trkpt lat="45.73885" lon="5.82922">
        <ele>829</ele>
        <time>2026-07-14T10:06:32Z</time>
      </trkpt>
      <trkpt lat="45.73882" lon="5.82911">
        <ele>833</ele>
        <time>2026-07-14T10:06:39Z</time>
      </trkpt>
      <trkpt lat="45.73877" lon="5.8291">
        <ele>834</ele>
        <time>2026-07-14T10:06:43Z</time>
      </trkpt>
      <trkpt lat="45.73843" lon="5.82933">
        <ele>840</ele>
        <time>2026-07-14T10:07:13Z</time>
      </trkpt>
      <trkpt lat="45.73831" lon="5.82958">
        <ele>838</ele>
        <time>2026-07-14T10:07:30Z</time>
      </trkpt>
      <trkpt lat="45.73823" lon="5.82958">
        <ele>841</ele>
        <time>2026-07-14T10:07:36Z</time>
      </trkpt>
      <trkpt lat="45.73825" lon="5.82939">
        <ele>844</ele>
        <time>2026-07-14T10:07:47Z</time>
      </trkpt>
      <trkpt lat="45.73833" lon="5.82913">
        <ele>847</ele>
        <time>2026-07-14T10:08:03Z</time>
      </trkpt>
      <trkpt lat="45.73847" lon="5.82893">
        <ele>847</ele>
        <time>2026-07-14T10:08:19Z</time>
      </trkpt>
      <trkpt lat="45.73855" lon="5.82844">
        <ele>854</ele>
        <time>2026-07-14T10:08:47Z</time>
      </trkpt>
      <trkpt lat="45.73874" lon="5.82812">
        <ele>855</ele>
        <time>2026-07-14T10:09:10Z</time>
      </trkpt>
      <trkpt lat="45.73861" lon="5.82767">
        <ele>867</ele>
        <time>2026-07-14T10:09:38Z</time>
      </trkpt>
      <trkpt lat="45.73861" lon="5.82752">
        <ele>870</ele>
        <time>2026-07-14T10:09:46Z</time>
      </trkpt>
      <trkpt lat="45.73893" lon="5.82691">
        <ele>876</ele>
        <time>2026-07-14T10:10:29Z</time>
      </trkpt>
      <trkpt lat="45.7391" lon="5.82649">
        <ele>881</ele>
        <time>2026-07-14T10:10:56Z</time>
      </trkpt>
      <trkpt lat="45.73911" lon="5.82635">
        <ele>884</ele>
        <time>2026-07-14T10:11:04Z</time>
      </trkpt>
      <trkpt lat="45.73902" lon="5.82636">
        <ele>885</ele>
        <time>2026-07-14T10:11:11Z</time>
      </trkpt>
      <trkpt lat="45.73876" lon="5.8264">
        <ele>890</ele>
        <time>2026-07-14T10:11:32Z</time>
      </trkpt>
      <trkpt lat="45.73857" lon="5.82649">
        <ele>892</ele>
        <time>2026-07-14T10:11:48Z</time>
      </trkpt>
      <trkpt lat="45.73844" lon="5.82633">
        <ele>898</ele>
        <time>2026-07-14T10:12:01Z</time>
      </trkpt>
      <trkpt lat="45.7384" lon="5.82613">
        <ele>902</ele>
        <time>2026-07-14T10:12:13Z</time>
      </trkpt>
      <trkpt lat="45.73833" lon="5.82598">
        <ele>906</ele>
        <time>2026-07-14T10:12:23Z</time>
      </trkpt>
      <trkpt lat="45.73817" lon="5.82586">
        <ele>912</ele>
        <time>2026-07-14T10:12:38Z</time>
      </trkpt>
      <trkpt lat="45.73805" lon="5.82588">
        <ele>914</ele>
        <time>2026-07-14T10:12:47Z</time>
      </trkpt>
      <trkpt lat="45.73776" lon="5.82593">
        <ele>919</ele>
        <time>2026-07-14T10:13:11Z</time>
      </trkpt>
      <trkpt lat="45.73759" lon="5.82593">
        <ele>923</ele>
        <time>2026-07-14T10:13:24Z</time>
      </trkpt>
      <trkpt lat="45.73743" lon="5.82603">
        <ele>927</ele>
        <time>2026-07-14T10:13:38Z</time>
      </trkpt>
      <trkpt lat="45.73731" lon="5.82604">
        <ele>933</ele>
        <time>2026-07-14T10:13:48Z</time>
      </trkpt>
      <trkpt lat="45.73718" lon="5.82618">
        <ele>936</ele>
        <time>2026-07-14T10:14:01Z</time>
      </trkpt>
      <trkpt lat="45.73707" lon="5.82638">
        <ele>936</ele>
        <time>2026-07-14T10:14:15Z</time>
      </trkpt>
      <trkpt lat="45.73684" lon="5.8265">
        <ele>943</ele>
        <time>2026-07-14T10:14:35Z</time>
      </trkpt>
      <trkpt lat="45.73662" lon="5.82665">
        <ele>949</ele>
        <time>2026-07-14T10:14:54Z</time>
      </trkpt>
      <trkpt lat="45.73653" lon="5.82668">
        <ele>953</ele>
        <time>2026-07-14T10:15:02Z</time>
      </trkpt>
      <trkpt lat="45.73647" lon="5.82661">
        <ele>958</ele>
        <time>2026-07-14T10:15:08Z</time>
      </trkpt>
      <trkpt lat="45.73642" lon="5.82662">
        <ele>960</ele>
        <time>2026-07-14T10:15:12Z</time>
      </trkpt>
      <trkpt lat="45.73636" lon="5.82667">
        <ele>962</ele>
        <time>2026-07-14T10:15:17Z</time>
      </trkpt>
      <trkpt lat="45.7363" lon="5.82687">
        <ele>961</ele>
        <time>2026-07-14T10:15:30Z</time>
      </trkpt>
      <trkpt lat="45.73613" lon="5.8271">
        <ele>965</ele>
        <time>2026-07-14T10:15:48Z</time>
      </trkpt>
      <trkpt lat="45.73609" lon="5.82708">
        <ele>968</ele>
        <time>2026-07-14T10:15:52Z</time>
      </trkpt>
      <trkpt lat="45.73605" lon="5.82696">
        <ele>972</ele>
        <time>2026-07-14T10:15:59Z</time>
      </trkpt>
      <trkpt lat="45.736" lon="5.82697">
        <ele>974</ele>
        <time>2026-07-14T10:16:03Z</time>
      </trkpt>
      <trkpt lat="45.73596" lon="5.82708">
        <ele>974</ele>
        <time>2026-07-14T10:16:10Z</time>
      </trkpt>
      <trkpt lat="45.73588" lon="5.8271">
        <ele>978</ele>
        <time>2026-07-14T10:16:17Z</time>
      </trkpt>
      <trkpt lat="45.73579" lon="5.82708">
        <ele>983</ele>
        <time>2026-07-14T10:16:24Z</time>
      </trkpt>
      <trkpt lat="45.73559" lon="5.82689">
        <ele>994</ele>
        <time>2026-07-14T10:16:43Z</time>
      </trkpt>
      <trkpt lat="45.73554" lon="5.82679">
        <ele>997</ele>
        <time>2026-07-14T10:16:50Z</time>
      </trkpt>
      <trkpt lat="45.73543" lon="5.82676">
        <ele>1002</ele>
        <time>2026-07-14T10:16:59Z</time>
      </trkpt>
      <trkpt lat="45.73528" lon="5.82679">
        <ele>1007</ele>
        <time>2026-07-14T10:17:11Z</time>
      </trkpt>
      <trkpt lat="45.73507" lon="5.82679">
        <ele>1014</ele>
        <time>2026-07-14T10:17:28Z</time>
      </trkpt>
      <trkpt lat="45.73492" lon="5.82683">
        <ele>1018</ele>
        <time>2026-07-14T10:17:40Z</time>
      </trkpt>
      <trkpt lat="45.7346" lon="5.82669">
        <ele>1030</ele>
        <time>2026-07-14T10:18:07Z</time>
      </trkpt>
      <trkpt lat="45.73441" lon="5.82672">
        <ele>1034</ele>
        <time>2026-07-14T10:18:22Z</time>
      </trkpt>
      <trkpt lat="45.73432" lon="5.82656">
        <ele>1040</ele>
        <time>2026-07-14T10:18:34Z</time>
      </trkpt>
      <trkpt lat="45.73427" lon="5.82635">
        <ele>1044</ele>
        <time>2026-07-14T10:18:46Z</time>
      </trkpt>
      <trkpt lat="45.73416" lon="5.8262">
        <ele>1050</ele>
        <time>2026-07-14T10:18:58Z</time>
      </trkpt>
      <trkpt lat="45.73402" lon="5.82607">
        <ele>1056</ele>
        <time>2026-07-14T10:19:12Z</time>
      </trkpt>
      <trkpt lat="45.73383" lon="5.82604">
        <ele>1061</ele>
        <time>2026-07-14T10:19:27Z</time>
      </trkpt>
      <trkpt lat="45.73364" lon="5.82605">
        <ele>1066</ele>
        <time>2026-07-14T10:19:42Z</time>
      </trkpt>
      <trkpt lat="45.73332" lon="5.82602">
        <ele>1075</ele>
        <time>2026-07-14T10:20:08Z</time>
      </trkpt>
      <trkpt lat="45.73211" lon="5.82612">
        <ele>1106</ele>
        <time>2026-07-14T10:21:45Z</time>
      </trkpt>
      <trkpt lat="45.7316" lon="5.82622">
        <ele>1116</ele>
        <time>2026-07-14T10:22:26Z</time>
      </trkpt>
      <trkpt lat="45.73139" lon="5.82609">
        <ele>1117</ele>
        <time>2026-07-14T10:22:44Z</time>
      </trkpt>
      <trkpt lat="45.73149" lon="5.82588">
        <ele>1120</ele>
        <time>2026-07-14T10:22:59Z</time>
      </trkpt>
      <trkpt lat="45.73155" lon="5.82567">
        <ele>1124</ele>
        <time>2026-07-14T10:23:11Z</time>
      </trkpt>
      <trkpt lat="45.7315" lon="5.82515">
        <ele>1131</ele>
        <time>2026-07-14T10:23:41Z</time>
      </trkpt>
      <trkpt lat="45.73152" lon="5.82475">
        <ele>1136</ele>
        <time>2026-07-14T10:24:03Z</time>
      </trkpt>
      <trkpt lat="45.73145" lon="5.82438">
        <ele>1137</ele>
        <time>2026-07-14T10:24:24Z</time>
      </trkpt>
      <trkpt lat="45.73146" lon="5.82413">
        <ele>1139</ele>
        <time>2026-07-14T10:24:38Z</time>
      </trkpt>
      <trkpt lat="45.7315" lon="5.82373">
        <ele>1139</ele>
        <time>2026-07-14T10:25:01Z</time>
      </trkpt>
      <trkpt lat="45.73153" lon="5.82348">
        <ele>1140</ele>
        <time>2026-07-14T10:25:15Z</time>
      </trkpt>
      <trkpt lat="45.73153" lon="5.823">
        <ele>1128</ele>
        <time>2026-07-14T10:25:42Z</time>
      </trkpt>
      <trkpt lat="45.73147" lon="5.82247">
        <ele>1106</ele>
        <time>2026-07-14T10:26:12Z</time>
      </trkpt>
      <trkpt lat="45.73143" lon="5.82225">
        <ele>1094</ele>
        <time>2026-07-14T10:26:25Z</time>
      </trkpt>
      <trkpt lat="45.73144" lon="5.82212">
        <ele>1089</ele>
        <time>2026-07-14T10:26:32Z</time>
      </trkpt>
      <trkpt lat="45.7316" lon="5.8219">
        <ele>1089</ele>
        <time>2026-07-14T10:26:50Z</time>
      </trkpt>
      <trkpt lat="45.73183" lon="5.82166">
        <ele>1084</ele>
        <time>2026-07-14T10:27:13Z</time>
      </trkpt>
      <trkpt lat="45.73202" lon="5.82141">
        <ele>1075</ele>
        <time>2026-07-14T10:27:33Z</time>
      </trkpt>
      <trkpt lat="45.7321" lon="5.82116">
        <ele>1065</ele>
        <time>2026-07-14T10:27:49Z</time>
      </trkpt>
      <trkpt lat="45.73219" lon="5.82113">
        <ele>1066</ele>
        <time>2026-07-14T10:27:56Z</time>
      </trkpt>
      <trkpt lat="45.7324" lon="5.82071">
        <ele>1054</ele>
        <time>2026-07-14T10:28:25Z</time>
      </trkpt>
      <trkpt lat="45.73267" lon="5.82042">
        <ele>1045</ele>
        <time>2026-07-14T10:28:52Z</time>
      </trkpt>
      <trkpt lat="45.73276" lon="5.82016">
        <ele>1035</ele>
        <time>2026-07-14T10:29:08Z</time>
      </trkpt>
      <trkpt lat="45.73279" lon="5.81997">
        <ele>1027</ele>
        <time>2026-07-14T10:29:19Z</time>
      </trkpt>
      <trkpt lat="45.73269" lon="5.81977">
        <ele>1014</ele>
        <time>2026-07-14T10:29:33Z</time>
      </trkpt>
      <trkpt lat="45.73261" lon="5.8194">
        <ele>992</ele>
        <time>2026-07-14T10:29:54Z</time>
      </trkpt>
      <trkpt lat="45.73195" lon="5.81934">
        <ele>968</ele>
        <time>2026-07-14T10:30:47Z</time>
      </trkpt>
      <trkpt lat="45.73174" lon="5.81945">
        <ele>967</ele>
        <time>2026-07-14T10:31:05Z</time>
      </trkpt>
      <trkpt lat="45.73144" lon="5.81947">
        <ele>955</ele>
        <time>2026-07-14T10:31:29Z</time>
      </trkpt>
      <trkpt lat="45.73134" lon="5.81938">
        <ele>945</ele>
        <time>2026-07-14T10:31:39Z</time>
      </trkpt>
      <trkpt lat="45.73138" lon="5.81915">
        <ele>936</ele>
        <time>2026-07-14T10:31:52Z</time>
      </trkpt>
      <trkpt lat="45.73145" lon="5.81895">
        <ele>931</ele>
        <time>2026-07-14T10:32:05Z</time>
      </trkpt>
      <trkpt lat="45.73147" lon="5.81855">
        <ele>916</ele>
        <time>2026-07-14T10:32:27Z</time>
      </trkpt>
      <trkpt lat="45.73133" lon="5.81815">
        <ele>898</ele>
        <time>2026-07-14T10:32:52Z</time>
      </trkpt>
      <trkpt lat="45.73112" lon="5.8179">
        <ele>885</ele>
        <time>2026-07-14T10:33:14Z</time>
      </trkpt>
      <trkpt lat="45.73152" lon="5.81733">
        <ele>880</ele>
        <time>2026-07-14T10:33:59Z</time>
      </trkpt>
      <trkpt lat="45.73171" lon="5.81718">
        <ele>879</ele>
        <time>2026-07-14T10:34:16Z</time>
      </trkpt>
      <trkpt lat="45.73174" lon="5.81712">
        <ele>878</ele>
        <time>2026-07-14T10:34:20Z</time>
      </trkpt>
      <trkpt lat="45.73171" lon="5.81718">
        <ele>879</ele>
        <time>2026-07-14T10:34:25Z</time>
      </trkpt>
      <trkpt lat="45.73179" lon="5.81719">
        <ele>880</ele>
        <time>2026-07-14T10:34:31Z</time>
      </trkpt>
      <trkpt lat="45.73213" lon="5.8174">
        <ele>888</ele>
        <time>2026-07-14T10:35:01Z</time>
      </trkpt>
      <trkpt lat="45.73235" lon="5.81744">
        <ele>890</ele>
        <time>2026-07-14T10:35:18Z</time>
      </trkpt>
      <trkpt lat="45.73283" lon="5.81732">
        <ele>889</ele>
        <time>2026-07-14T10:35:57Z</time>
      </trkpt>
      <trkpt lat="45.73346" lon="5.81722">
        <ele>888</ele>
        <time>2026-07-14T10:36:48Z</time>
      </trkpt>
      <trkpt lat="45.734" lon="5.81715">
        <ele>889</ele>
        <time>2026-07-14T10:37:32Z</time>
      </trkpt>
      <trkpt lat="45.73456" lon="5.81715">
        <ele>894</ele>
        <time>2026-07-14T10:38:16Z</time>
      </trkpt>
      <trkpt lat="45.73469" lon="5.81707">
        <ele>892</ele>
        <time>2026-07-14T10:38:28Z</time>
      </trkpt>
      <trkpt lat="45.73489" lon="5.81706">
        <ele>893</ele>
        <time>2026-07-14T10:38:44Z</time>
      </trkpt>
      <trkpt lat="45.73542" lon="5.81663">
        <ele>889</ele>
        <time>2026-07-14T10:39:33Z</time>
      </trkpt>
      <trkpt lat="45.73596" lon="5.81581">
        <ele>876</ele>
        <time>2026-07-14T10:40:36Z</time>
      </trkpt>
      <trkpt lat="45.73638" lon="5.81551">
        <ele>871</ele>
        <time>2026-07-14T10:41:13Z</time>
      </trkpt>
      <trkpt lat="45.73671" lon="5.81524">
        <ele>866</ele>
        <time>2026-07-14T10:41:44Z</time>
      </trkpt>
      <trkpt lat="45.73721" lon="5.8149">
        <ele>855</ele>
        <time>2026-07-14T10:42:28Z</time>
      </trkpt>
      <trkpt lat="45.73751" lon="5.81472">
        <ele>848</ele>
        <time>2026-07-14T10:42:54Z</time>
      </trkpt>
      <trkpt lat="45.73768" lon="5.81471">
        <ele>845</ele>
        <time>2026-07-14T10:43:08Z</time>
      </trkpt>
      <trkpt lat="45.73799" lon="5.81494">
        <ele>847</ele>
        <time>2026-07-14T10:43:36Z</time>
      </trkpt>
      <trkpt lat="45.73846" lon="5.81491">
        <ele>839</ele>
        <time>2026-07-14T10:44:13Z</time>
      </trkpt>
      <trkpt lat="45.73899" lon="5.81497">
        <ele>833</ele>
        <time>2026-07-14T10:44:56Z</time>
      </trkpt>
      <trkpt lat="45.73938" lon="5.81489">
        <ele>821</ele>
        <time>2026-07-14T10:45:27Z</time>
      </trkpt>
      <trkpt lat="45.73956" lon="5.81491">
        <ele>817</ele>
        <time>2026-07-14T10:45:42Z</time>
      </trkpt>
      <trkpt lat="45.7398" lon="5.81504">
        <ele>815</ele>
        <time>2026-07-14T10:46:02Z</time>
      </trkpt>
      <trkpt lat="45.74001" lon="5.81511">
        <ele>812</ele>
        <time>2026-07-14T10:46:20Z</time>
      </trkpt>
      <trkpt lat="45.74025" lon="5.81515">
        <ele>808</ele>
        <time>2026-07-14T10:46:39Z</time>
      </trkpt>
      <trkpt lat="45.74058" lon="5.81533">
        <ele>807</ele>
        <time>2026-07-14T10:47:07Z</time>
      </trkpt>
      <trkpt lat="45.74074" lon="5.81533">
        <ele>803</ele>
        <time>2026-07-14T10:47:20Z</time>
      </trkpt>
      <trkpt lat="45.74094" lon="5.81543">
        <ele>803</ele>
        <time>2026-07-14T10:47:37Z</time>
      </trkpt>
      <trkpt lat="45.74115" lon="5.81581">
        <ele>808</ele>
        <time>2026-07-14T10:48:04Z</time>
      </trkpt>
      <trkpt lat="45.74126" lon="5.81589">
        <ele>808</ele>
        <time>2026-07-14T10:48:14Z</time>
      </trkpt>
      <trkpt lat="45.74142" lon="5.81591">
        <ele>806</ele>
        <time>2026-07-14T10:48:27Z</time>
      </trkpt>
      <trkpt lat="45.74162" lon="5.81587">
        <ele>801</ele>
        <time>2026-07-14T10:48:43Z</time>
      </trkpt>
      <trkpt lat="45.74163" lon="5.81598">
        <ele>802</ele>
        <time>2026-07-14T10:48:49Z</time>
      </trkpt>
      <trkpt lat="45.7417" lon="5.81619">
        <ele>805</ele>
        <time>2026-07-14T10:49:02Z</time>
      </trkpt>
      <trkpt lat="45.74189" lon="5.81648">
        <ele>809</ele>
        <time>2026-07-14T10:49:24Z</time>
      </trkpt>
      <trkpt lat="45.74196" lon="5.81664">
        <ele>810</ele>
        <time>2026-07-14T10:49:35Z</time>
      </trkpt>
      <trkpt lat="45.74199" lon="5.81691">
        <ele>812</ele>
        <time>2026-07-14T10:49:50Z</time>
      </trkpt>
      <trkpt lat="45.74197" lon="5.81716">
        <ele>814</ele>
        <time>2026-07-14T10:50:04Z</time>
      </trkpt>
      <trkpt lat="45.7419" lon="5.81739">
        <ele>817</ele>
        <time>2026-07-14T10:50:18Z</time>
      </trkpt>
      <trkpt lat="45.74191" lon="5.81745">
        <ele>817</ele>
        <time>2026-07-14T10:50:22Z</time>
      </trkpt>
      <trkpt lat="45.74181" lon="5.81783">
        <ele>819</ele>
        <time>2026-07-14T10:50:44Z</time>
      </trkpt>
      <trkpt lat="45.74179" lon="5.81831">
        <ele>819</ele>
        <time>2026-07-14T10:51:11Z</time>
      </trkpt>
      <trkpt lat="45.74179" lon="5.81846">
        <ele>818</ele>
        <time>2026-07-14T10:51:20Z</time>
      </trkpt>
      <trkpt lat="45.74172" lon="5.81877">
        <ele>817</ele>
        <time>2026-07-14T10:51:38Z</time>
      </trkpt>
      <trkpt lat="45.74164" lon="5.81892">
        <ele>819</ele>
        <time>2026-07-14T10:51:48Z</time>
      </trkpt>
      <trkpt lat="45.74146" lon="5.81906">
        <ele>829</ele>
        <time>2026-07-14T10:52:05Z</time>
      </trkpt>
      <trkpt lat="45.74141" lon="5.8192">
        <ele>831</ele>
        <time>2026-07-14T10:52:14Z</time>
      </trkpt>
      <trkpt lat="45.74144" lon="5.8194">
        <ele>828</ele>
        <time>2026-07-14T10:52:25Z</time>
      </trkpt>
      <trkpt lat="45.74154" lon="5.81962">
        <ele>821</ele>
        <time>2026-07-14T10:52:40Z</time>
      </trkpt>
      <trkpt lat="45.7416" lon="5.81967">
        <ele>818</ele>
        <time>2026-07-14T10:52:45Z</time>
      </trkpt>
      <trkpt lat="45.74181" lon="5.81976">
        <ele>811</ele>
        <time>2026-07-14T10:53:03Z</time>
      </trkpt>
      <trkpt lat="45.74209" lon="5.8198">
        <ele>804</ele>
        <time>2026-07-14T10:53:25Z</time>
      </trkpt>
      <trkpt lat="45.74235" lon="5.81971">
        <ele>799</ele>
        <time>2026-07-14T10:53:47Z</time>
      </trkpt>
      <trkpt lat="45.7424" lon="5.81967">
        <ele>798</ele>
        <time>2026-07-14T10:53:51Z</time>
      </trkpt>
      <trkpt lat="45.74253" lon="5.81965">
        <ele>795</ele>
        <time>2026-07-14T10:54:02Z</time>
      </trkpt>
      <trkpt lat="45.74258" lon="5.81961">
        <ele>795</ele>
        <time>2026-07-14T10:54:06Z</time>
      </trkpt>
      <trkpt lat="45.74261" lon="5.81956">
        <ele>795</ele>
        <time>2026-07-14T10:54:10Z</time>
      </trkpt>
      <trkpt lat="45.74272" lon="5.81951">
        <ele>794</ele>
        <time>2026-07-14T10:54:19Z</time>
      </trkpt>
      <trkpt lat="45.74286" lon="5.8195">
        <ele>792</ele>
        <time>2026-07-14T10:54:31Z</time>
      </trkpt>
      <trkpt lat="45.74302" lon="5.81967">
        <ele>789</ele>
        <time>2026-07-14T10:54:47Z</time>
      </trkpt>
      <trkpt lat="45.74319" lon="5.82001">
        <ele>786</ele>
        <time>2026-07-14T10:55:10Z</time>
      </trkpt>
      <trkpt lat="45.74339" lon="5.82063">
        <ele>780</ele>
        <time>2026-07-14T10:55:48Z</time>
      </trkpt>
      <trkpt lat="45.74345" lon="5.82092">
        <ele>778</ele>
        <time>2026-07-14T10:56:05Z</time>
      </trkpt>
      <trkpt lat="45.74352" lon="5.82114">
        <ele>776</ele>
        <time>2026-07-14T10:56:18Z</time>
      </trkpt>
      <trkpt lat="45.74362" lon="5.82124">
        <ele>775</ele>
        <time>2026-07-14T10:56:28Z</time>
      </trkpt>
      <trkpt lat="45.74373" lon="5.82126">
        <ele>774</ele>
        <time>2026-07-14T10:56:37Z</time>
      </trkpt>
      <trkpt lat="45.74398" lon="5.82137">
        <ele>771</ele>
        <time>2026-07-14T10:56:58Z</time>
      </trkpt>
      <trkpt lat="45.74416" lon="5.82171">
        <ele>764</ele>
        <time>2026-07-14T10:57:22Z</time>
      </trkpt>
      <trkpt lat="45.74401" lon="5.82214">
        <ele>760</ele>
        <time>2026-07-14T10:57:49Z</time>
      </trkpt>
      <trkpt lat="45.74389" lon="5.823">
        <ele>751</ele>
        <time>2026-07-14T10:58:38Z</time>
      </trkpt>
      <trkpt lat="45.74382" lon="5.82314">
        <ele>751</ele>
        <time>2026-07-14T10:58:47Z</time>
      </trkpt>
      <trkpt lat="45.74371" lon="5.82328">
        <ele>752</ele>
        <time>2026-07-14T10:58:59Z</time>
      </trkpt>
      <trkpt lat="45.74369" lon="5.82335">
        <ele>752</ele>
        <time>2026-07-14T10:59:03Z</time>
      </trkpt>
      <trkpt lat="45.74366" lon="5.82361">
        <ele>750</ele>
        <time>2026-07-14T10:59:18Z</time>
      </trkpt>
      <trkpt lat="45.74368" lon="5.82449">
        <ele>744</ele>
        <time>2026-07-14T11:00:07Z</time>
      </trkpt>
      <trkpt lat="45.74377" lon="5.82489">
        <ele>741</ele>
        <time>2026-07-14T11:00:31Z</time>
      </trkpt>
      <trkpt lat="45.74385" lon="5.82509">
        <ele>738</ele>
        <time>2026-07-14T11:00:44Z</time>
      </trkpt>
      <trkpt lat="45.74386" lon="5.82516">
        <ele>738</ele>
        <time>2026-07-14T11:00:48Z</time>
      </trkpt>
      <trkpt lat="45.74377" lon="5.82546">
        <ele>740</ele>
        <time>2026-07-14T11:01:06Z</time>
      </trkpt>
      <trkpt lat="45.74377" lon="5.82559">
        <ele>740</ele>
        <time>2026-07-14T11:01:13Z</time>
      </trkpt>
      <trkpt lat="45.74384" lon="5.82571">
        <ele>739</ele>
        <time>2026-07-14T11:01:22Z</time>
      </trkpt>
      <trkpt lat="45.74417" lon="5.82609">
        <ele>729</ele>
        <time>2026-07-14T11:01:56Z</time>
      </trkpt>
      <trkpt lat="45.74424" lon="5.82625">
        <ele>729</ele>
        <time>2026-07-14T11:02:06Z</time>
      </trkpt>
      <trkpt lat="45.74431" lon="5.82643">
        <ele>729</ele>
        <time>2026-07-14T11:02:18Z</time>
      </trkpt>
      <trkpt lat="45.74464" lon="5.8268">
        <ele>731</ele>
        <time>2026-07-14T11:02:51Z</time>
      </trkpt>
      <trkpt lat="45.74504" lon="5.82718">
        <ele>734</ele>
        <time>2026-07-14T11:03:30Z</time>
      </trkpt>
      <trkpt lat="45.74544" lon="5.8278">
        <ele>739</ele>
        <time>2026-07-14T11:04:17Z</time>
      </trkpt>
      <trkpt lat="45.74562" lon="5.8279">
        <ele>741</ele>
        <time>2026-07-14T11:04:32Z</time>
      </trkpt>
      <trkpt lat="45.74578" lon="5.82786">
        <ele>744</ele>
        <time>2026-07-14T11:04:45Z</time>
      </trkpt>
      <trkpt lat="45.74588" lon="5.82777">
        <ele>746</ele>
        <time>2026-07-14T11:04:55Z</time>
      </trkpt>
    </trkseg>
  </trk>
</gpx>